Time;durP1;ratioP1;P1;durP2;ratioP2;P2;SDS_P1;SDS_P2;PMS_P1;PMS_P2;Temp;Humidity;BMP_temperature;BMP_pressure;BME280_temperature;BME280_humidity;BME280_pressure;Samples;Min_cycle;Max_cycle;Signal;HPM_P1;HPM_P2
2022/01/18 00:00:11;;;;;;;27.08;14.48;;;7.90;99.90;;;;;;4949998;29;20086;-69
2022/01/18 00:02:40;;;;;;;28.90;15.35;;;7.90;99.90;;;;;;4949952;28;20028;-68
2022/01/18 00:05:07;;;;;;;34.13;16.45;;;7.90;99.90;;;;;;4951574;28;20065;-68
2022/01/18 00:07:33;;;;;;;33.10;16.20;;;7.90;99.90;;;;;;4949966;28;20475;-68
2022/01/18 00:09:59;;;;;;;29.02;15.80;;;7.90;99.90;;;;;;4948293;29;20081;-67
2022/01/18 00:20:41;;;;;;;32.45;16.40;;;7.90;99.90;;;;;;4953438;28;20035;-68
2022/01/18 00:23:09;;;;;;;33.85;17.38;;;7.90;99.90;;;;;;4952286;29;20039;-68
2022/01/18 00:25:37;;;;;;;32.97;17.15;;;7.90;99.90;;;;;;4950300;29;20208;-68
2022/01/18 00:28:05;;;;;;;30.42;15.60;;;7.90;99.90;;;;;;4952579;28;20074;-67
2022/01/18 00:36:06;;;;;;;31.85;15.82;;;7.90;99.90;;;;;;4892752;29;20112;-68
2022/01/18 00:38:44;;;;;;;31.50;16.13;;;7.90;99.90;;;;;;4893351;29;20073;-68
2022/01/18 00:41:11;;;;;;;31.20;15.30;;;7.90;99.90;;;;;;4891647;29;20132;-68
2022/01/18 00:43:37;;;;;;;31.90;16.42;;;7.90;99.90;;;;;;4892849;29;20059;-67
2022/01/18 00:46:03;;;;;;;32.28;16.10;;;7.90;99.90;;;;;;4891764;29;20040;-67
2022/01/18 00:48:33;;;;;;;33.67;16.42;;;7.90;99.90;;;;;;4893290;29;20029;-67
2022/01/18 00:50:59;;;;;;;29.02;14.80;;;7.90;99.90;;;;;;4893356;29;20047;-68
2022/01/18 00:53:26;;;;;;;28.25;14.85;;;7.90;99.90;;;;;;4893642;29;20041;-67
2022/01/18 00:56:07;;;;;;;28.92;15.15;;;7.90;99.90;;;;;;4893549;29;20076;-68
2022/01/18 00:58:33;;;;;;;30.20;15.48;;;7.90;99.90;;;;;;4893379;29;20059;-67
2022/01/18 01:00:58;;;;;;;33.03;16.77;;;8.00;99.90;;;;;;4891802;29;20075;-68
2022/01/18 01:03:24;;;;;;;30.25;16.00;;;7.90;99.90;;;;;;4892821;29;20040;-67
2022/01/18 01:05:50;;;;;;;29.02;14.90;;;7.90;99.90;;;;;;4893195;29;20056;-68
2022/01/18 01:08:16;;;;;;;34.72;17.05;;;8.00;99.90;;;;;;4894678;29;20399;-68
2022/01/18 01:10:42;;;;;;;31.17;15.80;;;7.90;99.90;;;;;;4894278;29;20032;-68
2022/01/18 01:13:08;;;;;;;29.13;14.95;;;7.90;99.90;;;;;;4922229;29;20592;-67
2022/01/18 01:15:46;;;;;;;29.58;15.23;;;8.00;99.90;;;;;;4949926;29;20391;-68
2022/01/18 01:18:30;;;;;;;30.58;15.80;;;8.00;99.90;;;;;;4950148;29;20031;-68
2022/01/18 01:34:45;;;;;;;25.10;13.13;;;7.90;99.90;;;;;;4952137;29;20039;-67
2022/01/18 01:42:58;;;;;;;26.50;13.35;;;7.90;99.90;;;;;;4943749;29;20071;-68
2022/01/18 01:45:27;;;;;;;28.15;13.70;;;7.90;99.90;;;;;;4950086;28;20032;-68
2022/01/18 01:47:59;;;;;;;29.83;15.10;;;7.90;99.90;;;;;;4951815;28;20027;-67
2022/01/18 01:50:28;;;;;;;26.92;14.10;;;7.90;99.90;;;;;;4951853;28;20035;-67
2022/01/18 01:52:55;;;;;;;29.50;15.23;;;7.90;99.90;;;;;;4952060;29;20039;-68
2022/01/18 01:55:23;;;;;;;28.58;14.70;;;7.90;99.90;;;;;;4952144;28;20023;-68
2022/01/18 01:57:49;;;;;;;29.13;14.55;;;7.80;99.90;;;;;;4948977;29;20042;-68
2022/01/18 02:00:18;;;;;;;21.88;12.55;;;7.90;99.90;;;;;;4950813;28;20039;-67
2022/01/18 02:02:44;;;;;;;22.02;12.35;;;7.80;99.90;;;;;;4951461;28;20102;-67
2022/01/18 02:05:10;;;;;;;27.80;13.75;;;7.90;99.90;;;;;;4953243;28;20126;-67
2022/01/18 02:07:36;;;;;;;29.17;14.15;;;7.80;99.90;;;;;;4950448;29;20035;-67
2022/01/18 02:10:04;;;;;;;28.13;14.15;;;7.80;99.90;;;;;;4951179;28;20024;-67
2022/01/18 02:12:30;;;;;;;28.75;14.43;;;7.80;99.90;;;;;;4947440;29;20077;-67
2022/01/18 02:14:59;;;;;;;26.20;11.82;;;7.90;99.90;;;;;;4950552;28;20445;-68
2022/01/18 02:22:56;;;;;;;32.95;15.00;;;7.80;99.90;;;;;;4951977;29;20098;-67
2022/01/18 02:25:23;;;;;;;33.13;15.45;;;7.80;99.90;;;;;;4950800;29;20035;-67
2022/01/18 02:27:49;;;;;;;23.38;12.25;;;7.90;99.90;;;;;;4950297;28;20019;-67
2022/01/18 02:30:14;;;;;;;27.77;13.60;;;7.80;99.90;;;;;;4948878;29;20113;-67
2022/01/18 02:32:41;;;;;;;24.30;12.27;;;7.80;99.90;;;;;;4950702;28;20805;-67
2022/01/18 02:35:07;;;;;;;25.58;12.77;;;7.80;99.90;;;;;;4952959;28;20023;-68
2022/01/18 02:37:33;;;;;;;30.05;14.02;;;7.80;99.90;;;;;;4950092;29;20035;-67
2022/01/18 02:40:00;;;;;;;24.45;11.75;;;7.80;99.90;;;;;;4948645;28;20039;-67
2022/01/18 02:42:31;;;;;;;27.02;13.05;;;7.80;99.90;;;;;;4951316;29;20031;-67
2022/01/18 02:44:57;;;;;;;20.85;10.77;;;7.90;99.90;;;;;;4951847;28;20058;-67
2022/01/18 02:47:23;;;;;;;20.63;10.07;;;7.80;99.90;;;;;;4951832;28;20063;-67
2022/01/18 02:49:50;;;;;;;19.75;9.18;;;7.80;99.90;;;;;;4952801;29;20032;-67
2022/01/18 02:52:17;;;;;;;19.95;10.02;;;7.80;99.90;;;;;;4950070;28;20039;-67
2022/01/18 02:54:43;;;;;;;18.42;9.27;;;7.70;99.90;;;;;;4947060;29;20121;-67
2022/01/18 02:57:15;;;;;;;26.60;12.52;;;7.70;99.90;;;;;;4949340;29;20030;-67
2022/01/18 03:05:17;;;;;;;21.50;11.02;;;7.70;99.90;;;;;;4952301;29;20529;-67
2022/01/18 03:07:44;;;;;;;22.70;11.70;;;7.70;99.90;;;;;;4951853;29;20031;-67
2022/01/18 03:10:13;;;;;;;23.55;11.70;;;7.70;99.90;;;;;;4948203;28;20031;-67
2022/01/18 03:12:39;;;;;;;25.88;12.95;;;7.70;99.90;;;;;;4948800;28;20110;-68
2022/01/18 03:15:06;;;;;;;21.95;10.82;;;7.70;99.90;;;;;;4950543;28;20399;-67
2022/01/18 03:17:32;;;;;;;24.42;10.93;;;7.70;99.90;;;;;;4950142;28;20040;-68
2022/01/18 03:19:57;;;;;;;19.08;9.50;;;7.70;99.90;;;;;;4952341;28;20033;-67
2022/01/18 03:22:24;;;;;;;18.27;9.82;;;7.60;99.90;;;;;;4951054;29;20031;-67
2022/01/18 03:30:06;;;;;;;23.60;11.93;;;7.60;99.90;;;;;;4948788;29;20410;-67
2022/01/18 03:32:32;;;;;;;20.73;9.98;;;7.50;99.90;;;;;;4949329;28;20061;-68
2022/01/18 03:34:58;;;;;;;19.95;9.57;;;7.50;99.90;;;;;;4952379;28;20720;-67
2022/01/18 03:37:24;;;;;;;25.80;12.77;;;7.50;99.90;;;;;;4949801;29;20081;-67
2022/01/18 03:39:50;;;;;;;23.50;11.82;;;7.50;99.90;;;;;;4949537;28;20023;-67
2022/01/18 03:44:42;;;;;;;14.70;7.93;;;7.50;99.90;;;;;;4949153;28;20035;-67
2022/01/18 03:47:08;;;;;;;23.02;11.88;;;7.50;99.90;;;;;;4948167;29;20491;-67
2022/01/18 03:49:36;;;;;;;24.63;11.18;;;7.50;99.90;;;;;;4949741;28;20085;-67
2022/01/18 03:52:02;;;;;;;23.98;12.07;;;7.50;99.90;;;;;;4952333;28;20023;-67
2022/01/18 03:54:28;;;;;;;23.70;11.77;;;7.50;99.90;;;;;;4953630;28;20027;-67
2022/01/18 03:56:54;;;;;;;26.23;11.85;;;7.40;99.90;;;;;;4953155;29;20387;-67
2022/01/18 03:59:19;;;;;;;25.33;12.82;;;7.30;99.90;;;;;;4954639;28;20027;-68
2022/01/18 04:01:45;;;;;;;22.90;12.43;;;7.20;99.90;;;;;;4954575;29;20051;-68
2022/01/18 04:04:11;;;;;;;24.83;12.25;;;7.10;99.90;;;;;;4951212;29;20133;-67
2022/01/18 04:06:37;;;;;;;23.65;12.80;;;7.00;99.90;;;;;;4952416;28;20118;-67
2022/01/18 04:09:04;;;;;;;22.08;11.05;;;7.00;99.90;;;;;;4953300;28;20035;-67
2022/01/18 04:11:31;;;;;;;25.77;13.98;;;6.80;99.90;;;;;;4953662;28;20509;-67
2022/01/18 04:13:56;;;;;;;26.42;13.75;;;6.80;99.90;;;;;;4953725;29;20034;-67
2022/01/18 04:16:22;;;;;;;27.67;13.50;;;6.60;99.90;;;;;;4951276;28;20023;-67
2022/01/18 04:18:55;;;;;;;29.70;14.07;;;6.50;99.90;;;;;;4952354;29;20035;-67
2022/01/18 04:29:15;;;;;;;29.50;13.93;;;6.10;99.90;;;;;;4954027;29;20031;-67
2022/01/18 04:31:41;;;;;;;27.65;13.82;;;6.00;99.90;;;;;;4953804;29;20110;-67
2022/01/18 04:34:07;;;;;;;26.42;13.25;;;5.90;99.90;;;;;;4953091;29;20031;-68
2022/01/18 04:36:33;;;;;;;27.08;13.00;;;5.80;99.90;;;;;;4950528;28;20039;-67
2022/01/18 04:38:58;;;;;;;28.00;14.02;;;5.80;99.90;;;;;;4953179;29;20106;-68
2022/01/18 04:41:28;;;;;;;27.45;14.88;;;5.70;99.90;;;;;;4953477;28;20043;-68
2022/01/18 04:49:12;;;;;;;27.13;13.80;;;5.50;99.90;;;;;;4952445;28;20575;-67
2022/01/18 04:51:40;;;;;;;27.67;13.85;;;5.40;99.90;;;;;;4952321;28;20075;-67
2022/01/18 04:54:08;;;;;;;30.58;13.77;;;5.40;99.90;;;;;;4951781;28;20043;-67
2022/01/18 04:59:02;;;;;;;27.40;12.65;;;5.30;99.90;;;;;;4954442;29;20475;-67
2022/01/18 05:01:28;;;;;;;25.73;13.13;;;5.20;99.90;;;;;;4950988;28;20039;-67
2022/01/18 05:03:53;;;;;;;24.98;12.10;;;5.10;99.90;;;;;;4950383;29;20086;-67
2022/01/18 05:06:20;;;;;;;23.60;11.43;;;5.10;99.90;;;;;;4952161;29;20033;-67
2022/01/18 05:08:46;;;;;;;21.73;11.13;;;5.00;99.90;;;;;;4949477;28;20037;-67
2022/01/18 05:11:15;;;;;;;20.95;10.27;;;5.00;99.90;;;;;;4953886;28;20380;-68
2022/01/18 05:16:48;;;;;;;23.55;10.93;;;4.90;99.90;;;;;;4912267;29;20108;-67
2022/01/18 05:24:29;;;;;;;26.05;12.77;;;4.70;99.90;;;;;;4912358;29;20072;-68
2022/01/18 05:26:55;;;;;;;30.23;13.38;;;4.60;99.90;;;;;;4914050;29;20303;-68
2022/01/18 05:29:22;;;;;;;27.70;13.23;;;4.50;99.90;;;;;;4912346;29;20060;-68
2022/01/18 05:31:47;;;;;;;32.85;14.95;;;4.50;99.90;;;;;;4912638;29;20547;-68
2022/01/18 05:34:15;;;;;;;32.33;14.07;;;4.50;99.90;;;;;;4911210;29;20161;-66
2022/01/18 05:36:41;;;;;;;28.95;13.02;;;4.40;99.90;;;;;;4911230;29;20039;-67
2022/01/18 05:39:11;;;;;;;28.65;14.82;;;4.40;99.90;;;;;;4911258;29;20121;-67
2022/01/18 05:41:42;;;;;;;31.27;14.63;;;4.40;99.90;;;;;;4912014;29;20051;-67
2022/01/18 05:44:09;;;;;;;30.67;15.18;;;4.40;99.90;;;;;;4912458;29;20080;-68
2022/01/18 05:46:35;;;;;;;29.67;13.85;;;4.30;99.90;;;;;;4908782;29;20457;-67
2022/01/18 05:49:01;;;;;;;26.75;13.52;;;4.30;99.90;;;;;;4909347;29;20604;-67
2022/01/18 05:51:28;;;;;;;27.73;13.60;;;4.30;99.90;;;;;;4916047;29;20040;-68
2022/01/18 05:53:54;;;;;;;27.38;13.35;;;4.30;99.90;;;;;;4948735;28;20031;-69
2022/01/18 05:56:19;;;;;;;28.55;13.15;;;4.30;99.90;;;;;;4952606;28;20043;-68
2022/01/18 05:58:48;;;;;;;25.17;12.50;;;4.30;99.90;;;;;;4950459;28;20023;-68
2022/01/18 06:01:21;;;;;;;28.35;12.00;;;4.30;99.90;;;;;;4949237;28;20035;-67
2022/01/18 06:04:10;;;;;;;27.17;12.75;;;4.30;99.90;;;;;;4950369;29;20118;-67
2022/01/18 06:06:51;;;;;;;26.23;13.15;;;4.30;99.90;;;;;;4951471;28;20055;-66
2022/01/18 06:09:18;;;;;;;36.15;14.95;;;4.30;99.90;;;;;;4950780;28;20126;-66
2022/01/18 06:11:45;;;;;;;47.75;17.45;;;4.30;99.90;;;;;;4950776;28;20027;-67
2022/01/18 06:14:10;;;;;;;46.03;18.83;;;4.50;99.90;;;;;;4952687;28;20122;-68
2022/01/18 06:16:36;;;;;;;49.35;19.30;;;4.60;99.90;;;;;;4950304;28;20118;-67
2022/01/18 06:19:02;;;;;;;48.90;19.60;;;4.70;99.90;;;;;;4949590;29;20102;-68
2022/01/18 06:21:28;;;;;;;48.75;19.50;;;4.80;99.90;;;;;;4949358;29;20039;-68
2022/01/18 06:23:54;;;;;;;55.10;20.58;;;4.80;99.90;;;;;;4946854;28;20380;-69
2022/01/18 06:26:19;;;;;;;50.53;20.10;;;4.90;99.90;;;;;;4949672;29;20044;-68
2022/01/18 06:28:45;;;;;;;59.60;20.77;;;4.90;99.90;;;;;;4950179;28;20471;-68
2022/01/18 06:31:13;;;;;;;59.45;21.20;;;5.00;99.90;;;;;;4951067;28;20042;-68
2022/01/18 06:33:39;;;;;;;55.83;20.48;;;5.10;99.90;;;;;;4948962;28;20035;-69
2022/01/18 06:36:05;;;;;;;61.72;21.58;;;5.10;99.90;;;;;;4958333;28;20031;-69
2022/01/18 06:38:32;;;;;;;50.15;18.73;;;5.20;99.90;;;;;;4933068;28;20163;-69
2022/01/18 06:40:57;;;;;;;51.72;20.88;;;5.30;99.90;;;;;;4953222;28;20035;-68
2022/01/18 06:43:23;;;;;;;47.17;18.80;;;5.40;99.90;;;;;;4949686;29;20035;-69
2022/01/18 06:45:49;;;;;;;42.35;16.55;;;5.40;99.90;;;;;;4951083;28;20166;-69
2022/01/18 06:48:15;;;;;;;54.38;20.25;;;5.50;99.90;;;;;;4951146;28;20031;-70
2022/01/18 06:50:40;;;;;;;53.20;21.02;;;5.60;99.90;;;;;;4949222;29;20041;-69
2022/01/18 06:53:07;;;;;;;51.65;20.42;;;5.60;99.90;;;;;;4948388;29;20455;-69
2022/01/18 06:55:33;;;;;;;51.65;19.90;;;5.60;99.90;;;;;;4948363;29;20494;-70
2022/01/18 06:58:01;;;;;;;46.40;19.42;;;5.60;99.90;;;;;;4947892;29;20027;-69
2022/01/18 07:00:27;;;;;;;56.08;21.55;;;5.70;99.90;;;;;;4949173;28;20560;-69
2022/01/18 07:02:52;;;;;;;60.65;21.30;;;5.70;99.90;;;;;;4948413;28;20028;-70
2022/01/18 07:05:19;;;;;;;38.47;16.73;;;5.70;99.90;;;;;;4948201;28;20055;-69
2022/01/18 07:07:47;;;;;;;54.30;20.73;;;5.70;99.90;;;;;;4947646;29;20029;-70
2022/01/18 07:10:14;;;;;;;54.20;22.00;;;5.70;99.90;;;;;;4940369;29;20040;-70
2022/01/18 07:12:40;;;;;;;46.72;18.60;;;5.70;99.90;;;;;;4947208;29;20161;-69
2022/01/18 07:15:07;;;;;;;49.50;18.55;;;5.70;99.90;;;;;;4948412;28;20042;-69
2022/01/18 07:17:34;;;;;;;54.15;20.60;;;5.70;99.90;;;;;;4949487;29;20047;-69
2022/01/18 07:20:00;;;;;;;47.22;19.08;;;5.70;99.90;;;;;;4951803;28;20462;-69
2022/01/18 07:22:26;;;;;;;49.15;18.65;;;5.70;99.90;;;;;;4948597;29;20031;-69
2022/01/18 07:24:56;;;;;;;45.33;18.42;;;5.70;99.90;;;;;;4944325;28;20123;-69
2022/01/18 07:27:23;;;;;;;34.75;18.40;;;5.70;99.90;;;;;;4949698;29;20410;-69
2022/01/18 07:29:50;;;;;;;34.97;15.15;;;5.70;99.90;;;;;;4949946;28;20542;-69
2022/01/18 07:32:16;;;;;;;49.72;18.88;;;5.70;99.90;;;;;;4950659;28;20062;-70
2022/01/18 07:34:51;;;;;;;51.05;19.25;;;5.60;99.90;;;;;;4949593;29;20039;-69
2022/01/18 07:37:17;;;;;;;48.65;18.75;;;5.60;99.90;;;;;;4947431;29;20054;-69
2022/01/18 07:39:43;;;;;;;47.53;18.52;;;5.60;99.90;;;;;;4948770;28;20019;-69
2022/01/18 07:42:09;;;;;;;55.65;20.15;;;5.60;99.90;;;;;;4949864;28;20127;-70
2022/01/18 07:44:35;;;;;;;52.45;19.75;;;5.70;99.90;;;;;;4949446;28;20024;-70
2022/01/18 07:47:01;;;;;;;58.05;21.52;;;5.70;99.90;;;;;;4951289;29;20031;-70
2022/01/18 07:49:26;;;;;;;57.17;21.17;;;5.80;99.90;;;;;;4949939;28;20498;-69
2022/01/18 07:51:52;;;;;;;55.83;19.73;;;5.80;99.90;;;;;;4949692;29;20031;-69
2022/01/18 07:54:18;;;;;;;49.92;19.42;;;5.80;99.90;;;;;;4946678;28;20027;-70
2022/01/18 07:56:44;;;;;;;53.95;21.15;;;5.80;99.90;;;;;;4949600;28;20024;-69
2022/01/18 07:59:11;;;;;;;53.47;19.80;;;5.80;99.90;;;;;;4952106;28;20027;-69
2022/01/18 08:01:37;;;;;;;51.92;21.08;;;5.80;99.90;;;;;;4949810;28;20053;-70
2022/01/18 08:04:04;;;;;;;53.30;19.67;;;5.80;99.90;;;;;;4947881;29;20082;-69
2022/01/18 08:06:30;;;;;;;60.55;27.38;;;5.90;99.90;;;;;;4947645;28;20031;-69
2022/01/18 08:08:56;;;;;;;53.63;20.10;;;5.90;99.90;;;;;;4948620;28;20480;-69
2022/01/18 08:11:22;;;;;;;51.42;18.77;;;5.90;99.90;;;;;;4950710;28;20075;-69
2022/01/18 08:13:49;;;;;;;53.97;19.98;;;5.90;99.90;;;;;;4949327;28;20031;-68
2022/01/18 08:16:34;;;;;;;50.45;19.73;;;5.90;99.90;;;;;;4948178;29;20039;-69
2022/01/18 08:19:03;;;;;;;53.00;21.15;;;6.00;99.90;;;;;;4950044;28;20027;-69
2022/01/18 08:21:29;;;;;;;51.40;20.23;;;6.00;99.90;;;;;;4949535;28;20529;-69
2022/01/18 08:23:55;;;;;;;50.67;20.30;;;6.00;99.90;;;;;;4942397;28;20031;-69
2022/01/18 08:26:21;;;;;;;52.17;20.50;;;6.00;99.90;;;;;;4950964;28;20063;-69
2022/01/18 08:28:47;;;;;;;55.75;23.05;;;6.10;99.90;;;;;;4950098;29;20031;-70
2022/01/18 08:31:12;;;;;;;55.65;23.33;;;6.10;99.90;;;;;;4948360;28;20039;-69
2022/01/18 08:33:38;;;;;;;53.90;22.45;;;6.20;99.90;;;;;;4947765;29;20082;-70
2022/01/18 08:36:06;;;;;;;57.50;22.65;;;6.20;99.90;;;;;;4948646;28;20511;-70
2022/01/18 08:38:33;;;;;;;54.33;20.58;;;6.30;99.90;;;;;;4952755;28;20198;-69
2022/01/18 08:41:00;;;;;;;57.15;20.08;;;6.30;99.90;;;;;;4954745;28;20395;-70
2022/01/18 08:43:31;;;;;;;55.42;22.02;;;6.40;99.90;;;;;;4950322;28;20062;-69
2022/01/18 08:46:00;;;;;;;56.70;21.02;;;6.40;99.90;;;;;;4950892;28;20046;-68
2022/01/18 08:48:27;;;;;;;57.00;22.88;;;6.50;99.90;;;;;;4952269;28;20556;-68
2022/01/18 08:50:53;;;;;;;54.95;21.77;;;6.50;99.90;;;;;;4951344;28;20511;-68
2022/01/18 08:53:19;;;;;;;50.42;19.95;;;6.60;99.90;;;;;;4952608;28;20034;-69
2022/01/18 08:55:45;;;;;;;46.97;19.63;;;6.60;99.90;;;;;;4954337;29;20438;-68
2022/01/18 08:58:11;;;;;;;55.65;21.30;;;6.70;99.90;;;;;;4950117;28;20035;-69
2022/01/18 09:00:37;;;;;;;66.70;31.92;;;6.70;99.90;;;;;;4951028;29;20051;-67
2022/01/18 09:03:03;;;;;;;52.15;23.75;;;6.80;99.90;;;;;;4952604;28;20019;-67
2022/01/18 09:05:29;;;;;;;47.70;20.42;;;6.80;99.90;;;;;;4952847;28;20426;-68
2022/01/18 09:08:01;;;;;;;45.78;19.50;;;6.90;99.90;;;;;;4952807;29;20023;-67
2022/01/18 09:10:27;;;;;;;46.33;19.60;;;7.00;99.90;;;;;;4950862;29;20138;-68
2022/01/18 09:12:53;;;;;;;47.92;19.48;;;7.00;99.90;;;;;;4952533;28;20718;-68
2022/01/18 09:15:19;;;;;;;47.33;20.05;;;7.10;99.90;;;;;;4950219;29;20037;-68
2022/01/18 09:17:44;;;;;;;46.35;19.55;;;7.10;99.90;;;;;;4952237;28;21564;-69
2022/01/18 09:20:13;;;;;;;42.90;19.20;;;7.10;99.90;;;;;;4945278;28;20036;-68
2022/01/18 09:22:41;;;;;;;43.90;18.75;;;7.20;99.90;;;;;;4952483;28;20032;-68
2022/01/18 09:25:13;;;;;;;42.47;18.83;;;7.20;99.90;;;;;;4950995;28;20031;-68
2022/01/18 09:27:39;;;;;;;42.97;18.20;;;7.30;99.90;;;;;;4949523;28;20530;-68
2022/01/18 09:30:06;;;;;;;43.80;18.25;;;7.40;99.90;;;;;;4952884;29;20042;-67
2022/01/18 09:32:32;;;;;;;42.55;18.00;;;7.50;99.90;;;;;;4952326;29;20043;-68
2022/01/18 09:34:57;;;;;;;37.72;15.80;;;7.60;99.90;;;;;;4952862;29;20591;-67
2022/01/18 09:37:23;;;;;;;40.95;17.63;;;7.60;99.90;;;;;;4951781;29;20023;-68
2022/01/18 09:39:49;;;;;;;41.60;16.60;;;7.60;99.90;;;;;;4951789;29;20024;-68
2022/01/18 09:42:17;;;;;;;60.38;30.15;;;7.70;99.90;;;;;;4951863;28;20130;-68
2022/01/18 09:44:43;;;;;;;41.47;17.23;;;7.70;99.90;;;;;;4937133;29;20506;-67
2022/01/18 09:47:09;;;;;;;32.10;15.27;;;7.70;99.90;;;;;;4954168;28;20039;-67
2022/01/18 09:49:35;;;;;;;38.58;16.25;;;7.60;99.90;;;;;;4947866;29;20023;-68
2022/01/18 09:52:01;;;;;;;35.78;14.73;;;7.60;99.90;;;;;;4949553;28;20380;-68
2022/01/18 09:54:27;;;;;;;34.80;16.08;;;7.50;99.90;;;;;;4951455;29;20091;-67
2022/01/18 09:56:53;;;;;;;32.80;15.25;;;7.40;99.90;;;;;;4950423;29;20028;-68
2022/01/18 09:59:19;;;;;;;33.22;14.18;;;7.40;99.90;;;;;;4952057;28;20054;-68
2022/01/18 10:01:45;;;;;;;29.75;12.98;;;7.50;99.90;;;;;;4952709;29;20039;-68
2022/01/18 10:04:20;;;;;;;33.20;12.60;;;7.40;99.90;;;;;;4951784;28;20046;-68
2022/01/18 10:06:50;;;;;;;29.38;12.88;;;7.40;99.90;;;;;;4951580;28;20035;-68
2022/01/18 10:09:17;;;;;;;26.85;12.30;;;7.40;99.90;;;;;;4951536;28;20049;-67
2022/01/18 10:12:02;;;;;;;33.97;13.55;;;7.30;99.90;;;;;;4940031;29;20031;-69
2022/01/18 10:14:28;;;;;;;32.35;14.02;;;7.50;99.90;;;;;;4950453;29;20027;-68
2022/01/18 10:16:54;;;;;;;29.65;12.60;;;7.50;99.90;;;;;;4951960;29;20059;-68
2022/01/18 10:19:30;;;;;;;26.10;11.90;;;7.70;99.90;;;;;;4948355;29;20529;-68
2022/01/18 10:22:11;;;;;;;26.33;11.15;;;8.00;99.90;;;;;;4951081;28;20079;-69
2022/01/18 10:24:38;;;;;;;29.42;12.45;;;8.10;99.90;;;;;;4951433;28;20027;-68
2022/01/18 10:27:04;;;;;;;28.60;13.82;;;9.90;95.10;;;;;;4951318;29;20031;-69
2022/01/18 10:29:55;;;;;;;24.73;12.48;;;9.90;94.00;;;;;;4950835;28;20055;-68
2022/01/18 10:32:30;;;;;;;30.90;13.45;;;9.40;93.80;;;;;;4949677;29;20043;-69
2022/01/18 10:37:25;;;;;;;36.33;16.15;;;9.00;97.40;;;;;;4951514;29;20035;-68
2022/01/18 10:40:00;;;;;;;25.90;13.18;;;8.90;98.20;;;;;;4948775;28;20031;-68
2022/01/18 10:42:36;;;;;;;27.88;13.52;;;8.70;97.60;;;;;;4950941;29;20403;-68
2022/01/18 10:45:05;;;;;;;21.45;10.60;;;8.90;97.70;;;;;;4951272;28;20031;-68
2022/01/18 10:47:32;;;;;;;22.02;10.02;;;9.00;97.30;;;;;;4951286;28;20126;-68
2022/01/18 10:50:13;;;;;;;18.40;9.68;;;9.00;96.60;;;;;;4951545;29;20822;-68
2022/01/18 10:52:39;;;;;;;21.40;9.95;;;9.10;96.50;;;;;;4949637;29;20038;-68
2022/01/18 10:55:07;;;;;;;19.48;9.80;;;9.00;96.00;;;;;;4950620;28;20123;-69
2022/01/18 10:57:39;;;;;;;18.75;8.07;;;9.10;95.60;;;;;;4948904;28;20035;-69
2022/01/18 11:00:10;;;;;;;19.40;9.15;;;9.00;94.20;;;;;;4949507;28;20035;-68
2022/01/18 11:02:38;;;;;;;21.65;9.48;;;9.20;94.90;;;;;;4950262;29;20035;-68
2022/01/18 11:05:31;;;;;;;13.93;6.68;;;9.30;93.70;;;;;;4952431;29;20578;-69
2022/01/18 11:08:04;;;;;;;19.98;9.68;;;9.40;92.30;;;;;;4951932;29;20098;-68
2022/01/18 11:10:34;;;;;;;18.92;9.32;;;9.30;92.90;;;;;;4950549;29;20034;-68
2022/01/18 11:13:07;;;;;;;21.87;9.93;;;9.70;91.20;;;;;;4950353;29;20042;-69
2022/01/18 11:15:37;;;;;;;20.52;10.05;;;10.00;90.10;;;;;;4950437;29;20055;-69
2022/01/18 11:18:07;;;;;;;22.13;9.37;;;10.10;88.90;;;;;;4950389;28;20054;-69
2022/01/18 11:20:42;;;;;;;22.70;9.82;;;10.20;87.20;;;;;;4950690;29;20131;-68
2022/01/18 11:23:08;;;;;;;19.35;9.45;;;10.30;87.10;;;;;;4941017;29;20126;-68
2022/01/18 11:25:37;;;;;;;22.75;9.95;;;10.40;85.10;;;;;;4948156;29;20038;-68
2022/01/18 11:28:05;;;;;;;17.67;9.45;;;10.50;82.70;;;;;;4950132;29;20090;-69
2022/01/18 11:30:34;;;;;;;21.77;9.90;;;10.90;83.10;;;;;;4949426;28;20114;-68
2022/01/18 11:33:04;;;;;;;17.20;10.55;;;10.90;81.80;;;;;;4949521;28;20031;-69
2022/01/18 11:35:44;;;;;;;17.75;9.15;;;10.90;83.60;;;;;;4950405;28;20039;-69
2022/01/18 11:38:36;;;;;;;21.15;11.13;;;10.70;84.80;;;;;;4952395;28;20050;-68
2022/01/18 11:41:06;;;;;;;14.52;8.27;;;10.70;85.40;;;;;;4950929;29;20042;-69
2022/01/18 11:43:38;;;;;;;16.80;7.60;;;11.30;81.00;;;;;;4948833;29;20063;-69
2022/01/18 11:46:34;;;;;;;17.90;9.02;;;11.20;79.20;;;;;;4949834;29;20027;-69
2022/01/18 11:49:05;;;;;;;14.90;7.90;;;10.90;82.50;;;;;;4949565;28;20439;-69
2022/01/18 11:51:44;;;;;;;16.08;8.52;;;11.70;74.70;;;;;;4949364;29;20019;-70
2022/01/18 11:57:02;;;;;;;17.20;9.25;;;14.30;60.90;;;;;;4947495;29;20487;-68
2022/01/18 11:59:39;;;;;;;15.52;8.35;;;14.20;60.80;;;;;;4950389;29;20508;-68
2022/01/18 12:02:05;;;;;;;15.90;7.78;;;13.70;62.60;;;;;;4951360;29;20054;-70
2022/01/18 12:07:07;;;;;;;12.75;8.80;;;13.80;61.20;;;;;;4948294;29;20043;-68
2022/01/18 12:09:41;;;;;;;12.95;7.90;;;15.20;57.10;;;;;;4949835;28;20071;-69
2022/01/18 12:12:44;;;;;;;15.68;8.93;;;16.80;50.70;;;;;;4950412;28;20039;-69
2022/01/18 12:15:16;;;;;;;12.95;8.60;;;17.50;48.10;;;;;;4941564;29;20124;-68
2022/01/18 12:17:52;;;;;;;18.50;11.13;;;16.00;52.40;;;;;;4952027;29;20042;-68
2022/01/18 12:20:48;;;;;;;20.48;12.77;;;15.20;56.30;;;;;;4952250;29;20031;-68
2022/01/18 12:23:26;;;;;;;271.85;124.53;;;14.40;60.60;;;;;;4935730;29;20062;-68
2022/01/18 12:26:58;;;;;;;26.15;14.10;;;13.70;65.00;;;;;;4953902;29;20451;-68
2022/01/18 12:29:19;;;;;;;27.98;18.00;;;13.10;68.10;;;;;;4947314;29;20050;-68
2022/01/18 12:34:45;;;;;;;88.60;73.05;;;12.00;75.70;;;;;;4951624;29;20035;-68
2022/01/18 12:37:13;;;;;;;24.27;12.73;;;11.70;78.80;;;;;;4951737;28;20119;-68
2022/01/18 12:39:55;;;;;;;22.10;12.48;;;11.40;79.70;;;;;;4951061;28;20106;-68
2022/01/18 12:45:16;;;;;;;22.85;13.43;;;10.80;82.60;;;;;;4951794;29;20463;-68
2022/01/18 12:47:53;;;;;;;;;;;10.60;84.40;;;;;;4938675;29;20027;-68
2022/01/18 12:50:29;;;;;;;20.48;11.60;;;10.50;85.90;;;;;;4950703;29;19918;-68
2022/01/18 12:52:59;;;;;;;24.27;12.68;;;10.40;87.40;;;;;;4952723;29;20031;-69
2022/01/18 12:55:31;;;;;;;23.83;11.67;;;10.30;89.90;;;;;;4949330;28;20490;-69
2022/01/18 12:58:09;;;;;;;20.67;10.57;;;10.20;90.60;;;;;;4952928;28;20117;-69
2022/01/18 13:00:50;;;;;;;22.30;11.27;;;10.00;90.00;;;;;;4952783;28;20097;-68
2022/01/18 13:03:41;;;;;;;20.63;11.32;;;9.90;90.60;;;;;;4951171;29;20035;-70
2022/01/18 13:06:13;;;;;;;20.48;11.02;;;9.80;91.30;;;;;;4944228;29;20054;-69
2022/01/18 13:08:46;;;;;;;22.65;11.60;;;9.80;91.10;;;;;;4951710;28;20023;-70
2022/01/18 13:11:15;;;;;;;18.13;8.88;;;9.70;91.80;;;;;;4951194;29;20030;-69
2022/01/18 13:13:41;;;;;;;16.27;8.23;;;9.70;91.60;;;;;;4952727;29;20065;-69
2022/01/18 13:26:56;;;;;;;19.58;9.82;;;9.70;90.40;;;;;;4950988;29;20030;-69
2022/01/18 13:29:25;;;;;;;20.05;10.07;;;9.70;90.50;;;;;;4952644;28;20114;-69
2022/01/18 13:32:18;;;;;;;18.13;9.68;;;9.80;91.10;;;;;;4951855;28;20035;-69
2022/01/18 13:34:46;;;;;;;15.57;9.10;;;9.80;90.40;;;;;;4951431;29;20039;-69
2022/01/18 13:37:23;;;;;;;19.23;10.90;;;9.80;89.60;;;;;;4951837;28;20027;-69
2022/01/18 13:39:51;;;;;;;17.35;9.00;;;9.80;90.00;;;;;;4951162;28;20023;-69
2022/01/18 13:42:25;;;;;;;18.77;10.48;;;9.80;90.40;;;;;;4950186;29;20055;-69
2022/01/18 13:45:06;;;;;;;19.48;10.68;;;9.90;90.30;;;;;;4951794;28;20031;-69
2022/01/18 13:47:40;;;;;;;19.63;10.70;;;10.00;89.70;;;;;;4950810;28;20039;-68
2022/01/18 13:50:07;;;;;;;14.45;8.18;;;10.10;89.60;;;;;;4953590;29;20696;-69
2022/01/18 13:52:32;;;;;;;19.20;11.02;;;10.20;88.40;;;;;;4949660;29;20026;-69
2022/01/18 13:54:58;;;;;;;22.38;11.88;;;10.10;88.70;;;;;;4951561;28;20027;-69
2022/01/18 13:57:24;;;;;;;19.73;10.85;;;10.10;90.60;;;;;;4949926;29;20486;-69
2022/01/18 13:59:51;;;;;;;18.00;9.93;;;10.10;90.00;;;;;;4951471;29;20035;-68
2022/01/18 14:02:24;;;;;;;18.75;9.75;;;10.00;89.90;;;;;;4952615;28;20073;-68
2022/01/18 14:05:09;;;;;;;18.58;10.40;;;9.90;90.10;;;;;;4953451;29;20055;-68
2022/01/18 14:07:35;;;;;;;17.27;9.15;;;9.90;90.10;;;;;;4951149;28;20027;-68
2022/01/18 14:10:02;;;;;;;18.33;10.10;;;9.90;90.30;;;;;;4951334;29;20063;-69
2022/01/18 14:12:34;;;;;;;18.65;10.40;;;9.90;90.10;;;;;;4949959;28;20049;-69
2022/01/18 14:15:00;;;;;;;19.58;10.63;;;9.80;91.60;;;;;;4950827;28;20030;-70
2022/01/18 14:17:26;;;;;;;25.42;12.45;;;9.80;91.40;;;;;;4951870;28;20032;-69
2022/01/18 14:20:05;;;;;;;21.40;12.52;;;9.80;92.50;;;;;;4952210;28;20023;-68
2022/01/18 14:22:36;;;;;;;22.63;12.75;;;9.70;93.10;;;;;;4949428;28;20119;-70
2022/01/18 14:25:05;;;;;;;;;;;9.70;93.60;;;;;;4949739;28;20078;-69
2022/01/18 14:27:34;;;;;;;23.15;12.93;;;9.70;93.90;;;;;;4948700;28;19914;-69